sensor_id;sensor_type;location;lat;lon;timestamp;P1;durP1;ratioP1;P2;durP2;ratioP2
65053;SDS011;51639;47.828;35.038;2024-03-23T01:05:49;30.90;;;16.70;;
65053;SDS011;51639;47.828;35.038;2024-03-23T01:20:50;29.67;;;14.33;;
65053;SDS011;51639;47.828;35.038;2024-03-23T01:35:51;29.60;;;13.90;;
65053;SDS011;51639;47.828;35.038;2024-03-23T01:50:53;27.13;;;13.10;;
65053;SDS011;51639;47.828;35.038;2024-03-23T02:05:55;28.37;;;12.17;;
65053;SDS011;51639;47.828;35.038;2024-03-23T02:20:56;22.77;;;11.03;;
65053;SDS011;51639;47.828;35.038;2024-03-23T02:35:57;21.83;;;10.67;;
65053;SDS011;51639;47.828;35.038;2024-03-23T02:50:59;25.07;;;10.87;;
65053;SDS011;51639;47.828;35.038;2024-03-23T03:05:59;23.65;;;11.02;;
65053;SDS011;51639;47.828;35.038;2024-03-23T03:21:01;30.77;;;12.20;;
65053;SDS011;51639;47.828;35.038;2024-03-23T03:36:02;24.87;;;11.13;;
65053;SDS011;51639;47.828;35.038;2024-03-23T03:51:04;26.93;;;11.03;;
65053;SDS011;51639;47.828;35.038;2024-03-23T04:06:05;26.90;;;11.23;;
65053;SDS011;51639;47.828;35.038;2024-03-23T04:21:06;31.23;;;12.00;;
65053;SDS011;51639;47.828;35.038;2024-03-23T04:36:07;27.60;;;13.73;;
65053;SDS011;51639;47.828;35.038;2024-03-23T04:51:08;21.30;;;10.23;;
65053;SDS011;51639;47.828;35.038;2024-03-23T05:06:09;29.13;;;13.68;;
65053;SDS011;51639;47.828;35.038;2024-03-23T05:21:10;31.00;;;14.23;;
65053;SDS011;51639;47.828;35.038;2024-03-23T05:36:11;33.28;;;13.68;;
65053;SDS011;51639;47.828;35.038;2024-03-23T05:51:12;33.80;;;13.20;;
65053;SDS011;51639;47.828;35.038;2024-03-23T06:06:13;35.03;;;16.35;;
65053;SDS011;51639;47.828;35.038;2024-03-23T06:21:14;38.27;;;18.17;;
65053;SDS011;51639;47.828;35.038;2024-03-23T06:36:15;39.87;;;17.70;;
65053;SDS011;51639;47.828;35.038;2024-03-23T06:51:16;42.90;;;22.80;;
65053;SDS011;51639;47.828;35.038;2024-03-23T07:06:17;42.67;;;21.60;;
65053;SDS011;51639;47.828;35.038;2024-03-23T07:21:18;40.00;;;20.07;;
65053;SDS011;51639;47.828;35.038;2024-03-23T07:36:19;41.57;;;18.33;;
65053;SDS011;51639;47.828;35.038;2024-03-23T07:51:21;36.97;;;19.93;;
65053;SDS011;51639;47.828;35.038;2024-03-23T08:06:23;32.33;;;16.20;;
65053;SDS011;51639;47.828;35.038;2024-03-23T08:21:24;37.23;;;17.57;;
65053;SDS011;51639;47.828;35.038;2024-03-23T08:36:26;35.60;;;16.40;;
65053;SDS011;51639;47.828;35.038;2024-03-23T08:51:27;28.03;;;13.87;;
65053;SDS011;51639;47.828;35.038;2024-03-23T09:06:28;27.50;;;14.60;;
65053;SDS011;51639;47.828;35.038;2024-03-23T09:21:29;29.70;;;14.37;;
65053;SDS011;51639;47.828;35.038;2024-03-23T09:36:30;29.08;;;13.30;;
65053;SDS011;51639;47.828;35.038;2024-03-23T09:51:32;21.88;;;10.70;;
65053;SDS011;51639;47.828;35.038;2024-03-23T10:06:33;23.23;;;10.32;;
65053;SDS011;51639;47.828;35.038;2024-03-23T10:21:34;21.02;;;10.50;;
65053;SDS011;51639;47.828;35.038;2024-03-23T10:36:35;22.40;;;10.12;;
65053;SDS011;51639;47.828;35.038;2024-03-23T10:51:41;18.30;;;8.93;;
65053;SDS011;51639;47.828;35.038;2024-03-23T11:06:42;20.90;;;10.95;;
65053;SDS011;51639;47.828;35.038;2024-03-23T11:21:53;15.05;;;7.95;;
65053;SDS011;51639;47.828;35.038;2024-03-23T11:37:05;16.23;;;9.27;;
65053;SDS011;51639;47.828;35.038;2024-03-23T11:52:06;61.05;;;12.63;;
65053;SDS011;51639;47.828;35.038;2024-03-23T12:07:18;40.15;;;9.95;;
65053;SDS011;51639;47.828;35.038;2024-03-23T12:22:20;177.85;;;19.90;;
65053;SDS011;51639;47.828;35.038;2024-03-23T12:37:21;26.80;;;11.30;;
65053;SDS011;51639;47.828;35.038;2024-03-23T12:52:22;29.67;;;10.67;;
65053;SDS011;51639;47.828;35.038;2024-03-23T13:07:28;25.97;;;10.53;;
65053;SDS011;51639;47.828;35.038;2024-03-23T13:22:29;23.50;;;10.43;;
65053;SDS011;51639;47.828;35.038;2024-03-23T13:37:30;20.20;;;9.80;;
65053;SDS011;51639;47.828;35.038;2024-03-23T13:52:31;16.57;;;6.70;;
65053;SDS011;51639;47.828;35.038;2024-03-23T14:07:32;8.60;;;4.70;;
65053;SDS011;51639;47.828;35.038;2024-03-23T14:22:33;21.90;;;8.70;;
65053;SDS011;51639;47.828;35.038;2024-03-23T14:37:40;8.27;;;5.70;;
65053;SDS011;51639;47.828;35.038;2024-03-23T14:52:51;13.17;;;5.13;;
65053;SDS011;51639;47.828;35.038;2024-03-23T15:23:19;11.70;;;6.63;;
65053;SDS011;51639;47.828;35.038;2024-03-23T15:38:25;14.53;;;7.07;;
65053;SDS011;51639;47.828;35.038;2024-03-23T15:53:26;16.43;;;8.57;;
65053;SDS011;51639;47.828;35.038;2024-03-23T16:08:28;44.73;;;23.47;;
65053;SDS011;51639;47.828;35.038;2024-03-23T16:23:34;37.33;;;21.87;;
65053;SDS011;51639;47.828;35.038;2024-03-23T16:38:38;24.10;;;13.50;;
65053;SDS011;51639;47.828;35.038;2024-03-23T16:53:39;30.13;;;12.83;;
65053;SDS011;51639;47.828;35.038;2024-03-23T17:08:41;24.97;;;11.47;;
65053;SDS011;51639;47.828;35.038;2024-03-23T17:23:42;21.60;;;10.77;;
65053;SDS011;51639;47.828;35.038;2024-03-23T17:38:43;20.70;;;11.73;;
65053;SDS011;51639;47.828;35.038;2024-03-23T17:53:44;29.48;;;13.93;;
65053;SDS011;51639;47.828;35.038;2024-03-23T18:08:45;24.83;;;11.18;;
65053;SDS011;51639;47.828;35.038;2024-03-23T18:23:46;16.87;;;10.13;;
65053;SDS011;51639;47.828;35.038;2024-03-23T18:38:47;27.63;;;13.60;;
65053;SDS011;51639;47.828;35.038;2024-03-23T18:53:48;25.35;;;11.45;;
65053;SDS011;51639;47.828;35.038;2024-03-23T19:08:49;26.20;;;12.45;;
65053;SDS011;51639;47.828;35.038;2024-03-23T19:23:50;16.87;;;8.20;;
65053;SDS011;51639;47.828;35.038;2024-03-23T19:38:51;23.83;;;8.93;;
65053;SDS011;51639;47.828;35.038;2024-03-23T19:53:52;32.63;;;12.90;;
65053;SDS011;51639;47.828;35.038;2024-03-23T20:08:53;41.00;;;18.50;;
65053;SDS011;51639;47.828;35.038;2024-03-23T20:23:54;27.10;;;13.80;;
65053;SDS011;51639;47.828;35.038;2024-03-23T20:38:55;32.03;;;11.53;;
65053;SDS011;51639;47.828;35.038;2024-03-23T20:53:56;23.80;;;11.40;;
65053;SDS011;51639;47.828;35.038;2024-03-23T21:08:57;28.43;;;10.83;;
65053;SDS011;51639;47.828;35.038;2024-03-23T21:23:58;20.87;;;9.67;;
65053;SDS011;51639;47.828;35.038;2024-03-23T21:38:59;22.05;;;11.25;;
65053;SDS011;51639;47.828;35.038;2024-03-23T21:54:01;19.97;;;9.87;;
65053;SDS011;51639;47.828;35.038;2024-03-23T22:09:03;32.07;;;14.03;;
65053;SDS011;51639;47.828;35.038;2024-03-23T22:24:04;33.73;;;15.23;;
65053;SDS011;51639;47.828;35.038;2024-03-23T22:39:06;29.83;;;15.03;;
65053;SDS011;51639;47.828;35.038;2024-03-23T22:54:07;32.77;;;14.37;;
65053;SDS011;51639;47.828;35.038;2024-03-23T23:09:08;27.23;;;11.07;;
65053;SDS011;51639;47.828;35.038;2024-03-23T23:24:09;21.63;;;11.37;;
65053;SDS011;51639;47.828;35.038;2024-03-23T23:39:09;48.78;;;24.52;;
65053;SDS011;51639;47.828;35.038;2024-03-23T23:54:11;34.17;;;16.38;;
